sensor_id;sensor_type;location;lat;lon;timestamp;P1;durP1;ratioP1;P2;durP2;ratioP2
25319;SDS011;13256;49.012;8.610;2022-12-13T00:02:18;32.72;;;13.23;;
25319;SDS011;13256;49.012;8.610;2022-12-13T00:04:50;30.20;;;12.50;;
25319;SDS011;13256;49.012;8.610;2022-12-13T00:07:19;28.45;;;11.88;;
25319;SDS011;13256;49.012;8.610;2022-12-13T00:09:49;28.60;;;12.35;;
25319;SDS011;13256;49.012;8.610;2022-12-13T00:12:19;28.15;;;12.00;;
25319;SDS011;13256;49.012;8.610;2022-12-13T00:14:46;30.65;;;12.02;;
25319;SDS011;13256;49.012;8.610;2022-12-13T00:17:12;30.98;;;11.63;;
25319;SDS011;13256;49.012;8.610;2022-12-13T00:19:45;28.58;;;13.02;;
25319;SDS011;13256;49.012;8.610;2022-12-13T00:22:14;27.58;;;10.77;;
25319;SDS011;13256;49.012;8.610;2022-12-13T00:24:45;26.27;;;12.63;;
25319;SDS011;13256;49.012;8.610;2022-12-13T00:27:15;21.52;;;10.73;;
25319;SDS011;13256;49.012;8.610;2022-12-13T00:29:50;20.60;;;10.35;;
25319;SDS011;13256;49.012;8.610;2022-12-13T00:32:22;27.90;;;11.20;;
25319;SDS011;13256;49.012;8.610;2022-12-13T00:34:51;25.33;;;11.70;;
25319;SDS011;13256;49.012;8.610;2022-12-13T00:37:21;23.88;;;10.95;;
25319;SDS011;13256;49.012;8.610;2022-12-13T00:39:50;29.80;;;11.60;;
25319;SDS011;13256;49.012;8.610;2022-12-13T00:42:18;22.52;;;10.75;;
25319;SDS011;13256;49.012;8.610;2022-12-13T00:44:46;25.67;;;11.35;;
25319;SDS011;13256;49.012;8.610;2022-12-13T00:47:15;20.45;;;10.30;;
25319;SDS011;13256;49.012;8.610;2022-12-13T00:49:44;22.75;;;10.60;;
25319;SDS011;13256;49.012;8.610;2022-12-13T00:52:11;24.50;;;10.77;;
25319;SDS011;13256;49.012;8.610;2022-12-13T00:54:38;24.73;;;10.85;;
25319;SDS011;13256;49.012;8.610;2022-12-13T00:57:07;21.27;;;10.10;;
25319;SDS011;13256;49.012;8.610;2022-12-13T00:59:35;26.73;;;11.00;;
25319;SDS011;13256;49.012;8.610;2022-12-13T01:02:06;32.67;;;12.18;;
25319;SDS011;13256;49.012;8.610;2022-12-13T01:04:37;27.23;;;11.13;;
25319;SDS011;13256;49.012;8.610;2022-12-13T01:07:06;25.52;;;10.88;;
25319;SDS011;13256;49.012;8.610;2022-12-13T01:09:33;32.47;;;11.88;;
25319;SDS011;13256;49.012;8.610;2022-12-13T01:12:04;29.35;;;12.05;;
25319;SDS011;13256;49.012;8.610;2022-12-13T01:14:34;23.85;;;10.23;;
25319;SDS011;13256;49.012;8.610;2022-12-13T01:17:02;19.92;;;10.32;;
25319;SDS011;13256;49.012;8.610;2022-12-13T01:19:32;27.83;;;10.75;;
25319;SDS011;13256;49.012;8.610;2022-12-13T01:22:06;21.00;;;10.15;;
25319;SDS011;13256;49.012;8.610;2022-12-13T01:24:35;30.20;;;11.48;;
25319;SDS011;13256;49.012;8.610;2022-12-13T01:27:05;26.77;;;11.82;;
25319;SDS011;13256;49.012;8.610;2022-12-13T01:29:33;21.98;;;10.70;;
25319;SDS011;13256;49.012;8.610;2022-12-13T01:32:03;23.98;;;11.00;;
25319;SDS011;13256;49.012;8.610;2022-12-13T01:34:36;30.80;;;11.95;;
25319;SDS011;13256;49.012;8.610;2022-12-13T01:37:06;29.08;;;11.75;;
25319;SDS011;13256;49.012;8.610;2022-12-13T01:39:57;26.42;;;10.25;;
25319;SDS011;13256;49.012;8.610;2022-12-13T01:42:27;26.88;;;11.05;;
25319;SDS011;13256;49.012;8.610;2022-12-13T01:47:26;28.88;;;10.90;;
25319;SDS011;13256;49.012;8.610;2022-12-13T01:50:20;26.33;;;11.25;;
25319;SDS011;13256;49.012;8.610;2022-12-13T01:52:52;26.77;;;11.32;;
25319;SDS011;13256;49.012;8.610;2022-12-13T01:55:29;33.05;;;12.40;;
25319;SDS011;13256;49.012;8.610;2022-12-13T01:58:10;28.52;;;12.13;;
25319;SDS011;13256;49.012;8.610;2022-12-13T02:00:50;28.17;;;11.60;;
25319;SDS011;13256;49.012;8.610;2022-12-13T02:03:20;29.25;;;10.32;;
25319;SDS011;13256;49.012;8.610;2022-12-13T02:06:09;21.70;;;10.05;;
25319;SDS011;13256;49.012;8.610;2022-12-13T02:08:41;22.48;;;10.27;;
25319;SDS011;13256;49.012;8.610;2022-12-13T02:11:10;27.00;;;10.52;;
25319;SDS011;13256;49.012;8.610;2022-12-13T02:13:42;41.57;;;11.80;;
25319;SDS011;13256;49.012;8.610;2022-12-13T02:16:11;29.23;;;12.38;;
25319;SDS011;13256;49.012;8.610;2022-12-13T02:24:46;27.23;;;11.88;;
25319;SDS011;13256;49.012;8.610;2022-12-13T02:27:38;27.98;;;11.18;;
25319;SDS011;13256;49.012;8.610;2022-12-13T02:30:50;24.35;;;11.43;;
25319;SDS011;13256;49.012;8.610;2022-12-13T02:33:21;26.60;;;11.02;;
25319;SDS011;13256;49.012;8.610;2022-12-13T02:44:49;22.50;;;10.02;;
25319;SDS011;13256;49.012;8.610;2022-12-13T02:47:09;27.33;;;11.27;;
25319;SDS011;13256;49.012;8.610;2022-12-13T02:49:55;24.88;;;11.20;;
25319;SDS011;13256;49.012;8.610;2022-12-13T02:52:25;23.10;;;10.25;;
25319;SDS011;13256;49.012;8.610;2022-12-13T02:54:58;28.02;;;11.35;;
25319;SDS011;13256;49.012;8.610;2022-12-13T02:57:37;24.88;;;10.88;;
25319;SDS011;13256;49.012;8.610;2022-12-13T03:00:14;32.05;;;12.68;;
25319;SDS011;13256;49.012;8.610;2022-12-13T03:11:22;29.92;;;11.00;;
25319;SDS011;13256;49.012;8.610;2022-12-13T03:13:55;30.02;;;11.90;;
25319;SDS011;13256;49.012;8.610;2022-12-13T03:16:36;29.15;;;11.40;;
25319;SDS011;13256;49.012;8.610;2022-12-13T03:19:07;28.70;;;13.40;;
25319;SDS011;13256;49.012;8.610;2022-12-13T03:21:40;28.95;;;10.82;;
25319;SDS011;13256;49.012;8.610;2022-12-13T03:24:19;26.65;;;12.18;;
25319;SDS011;13256;49.012;8.610;2022-12-13T03:26:51;24.17;;;10.65;;
25319;SDS011;13256;49.012;8.610;2022-12-13T03:29:24;28.95;;;11.85;;
25319;SDS011;13256;49.012;8.610;2022-12-13T03:31:55;34.38;;;12.82;;
25319;SDS011;13256;49.012;8.610;2022-12-13T03:34:22;23.63;;;10.70;;
25319;SDS011;13256;49.012;8.610;2022-12-13T03:36:50;25.33;;;10.90;;
25319;SDS011;13256;49.012;8.610;2022-12-13T03:39:18;23.92;;;11.13;;
25319;SDS011;13256;49.012;8.610;2022-12-13T03:41:46;23.00;;;10.45;;
25319;SDS011;13256;49.012;8.610;2022-12-13T03:44:12;23.48;;;11.18;;
25319;SDS011;13256;49.012;8.610;2022-12-13T03:46:39;24.95;;;11.32;;
25319;SDS011;13256;49.012;8.610;2022-12-13T03:49:06;25.08;;;10.73;;
25319;SDS011;13256;49.012;8.610;2022-12-13T03:51:33;23.60;;;11.23;;
25319;SDS011;13256;49.012;8.610;2022-12-13T03:54:00;24.70;;;10.93;;
25319;SDS011;13256;49.012;8.610;2022-12-13T03:56:39;23.33;;;10.85;;
25319;SDS011;13256;49.012;8.610;2022-12-13T03:59:07;23.35;;;10.25;;
25319;SDS011;13256;49.012;8.610;2022-12-13T04:01:36;25.25;;;10.70;;
25319;SDS011;13256;49.012;8.610;2022-12-13T04:04:06;23.88;;;10.68;;
25319;SDS011;13256;49.012;8.610;2022-12-13T04:06:39;25.80;;;11.20;;
25319;SDS011;13256;49.012;8.610;2022-12-13T04:09:06;23.13;;;11.13;;
25319;SDS011;13256;49.012;8.610;2022-12-13T04:11:41;21.30;;;11.43;;
25319;SDS011;13256;49.012;8.610;2022-12-13T04:14:27;21.33;;;10.00;;
25319;SDS011;13256;49.012;8.610;2022-12-13T04:16:55;27.45;;;11.55;;
25319;SDS011;13256;49.012;8.610;2022-12-13T04:19:25;22.02;;;10.60;;
25319;SDS011;13256;49.012;8.610;2022-12-13T04:21:53;23.70;;;10.50;;
25319;SDS011;13256;49.012;8.610;2022-12-13T04:24:22;30.05;;;11.20;;
25319;SDS011;13256;49.012;8.610;2022-12-13T04:26:58;22.80;;;10.40;;
25319;SDS011;13256;49.012;8.610;2022-12-13T04:29:27;25.27;;;10.15;;
25319;SDS011;13256;49.012;8.610;2022-12-13T04:32:01;29.73;;;11.88;;
25319;SDS011;13256;49.012;8.610;2022-12-13T04:34:55;27.05;;;11.00;;
25319;SDS011;13256;49.012;8.610;2022-12-13T04:37:29;25.42;;;10.77;;
25319;SDS011;13256;49.012;8.610;2022-12-13T04:43:08;30.67;;;11.13;;
25319;SDS011;13256;49.012;8.610;2022-12-13T04:48:34;21.27;;;9.35;;
25319;SDS011;13256;49.012;8.610;2022-12-13T04:54:02;24.38;;;10.80;;
25319;SDS011;13256;49.012;8.610;2022-12-13T04:57:00;24.35;;;10.77;;
25319;SDS011;13256;49.012;8.610;2022-12-13T04:59:29;24.20;;;10.57;;
25319;SDS011;13256;49.012;8.610;2022-12-13T05:01:59;22.05;;;9.43;;
25319;SDS011;13256;49.012;8.610;2022-12-13T05:04:33;29.67;;;10.68;;
25319;SDS011;13256;49.012;8.610;2022-12-13T05:07:04;24.13;;;10.20;;
25319;SDS011;13256;49.012;8.610;2022-12-13T05:09:32;21.55;;;11.18;;
25319;SDS011;13256;49.012;8.610;2022-12-13T05:15:02;20.38;;;9.60;;
25319;SDS011;13256;49.012;8.610;2022-12-13T05:20:24;21.48;;;9.45;;
25319;SDS011;13256;49.012;8.610;2022-12-13T05:22:56;21.50;;;9.73;;
25319;SDS011;13256;49.012;8.610;2022-12-13T05:25:32;23.90;;;10.30;;
25319;SDS011;13256;49.012;8.610;2022-12-13T05:28:00;20.02;;;9.02;;
25319;SDS011;13256;49.012;8.610;2022-12-13T05:30:48;22.10;;;10.68;;
25319;SDS011;13256;49.012;8.610;2022-12-13T05:33:20;26.30;;;11.00;;
25319;SDS011;13256;49.012;8.610;2022-12-13T05:35:52;19.35;;;10.30;;
25319;SDS011;13256;49.012;8.610;2022-12-13T05:38:28;32.42;;;11.68;;
25319;SDS011;13256;49.012;8.610;2022-12-13T05:40:55;22.75;;;10.25;;
25319;SDS011;13256;49.012;8.610;2022-12-13T05:43:28;29.73;;;11.88;;
25319;SDS011;13256;49.012;8.610;2022-12-13T05:46:13;27.52;;;12.02;;
25319;SDS011;13256;49.012;8.610;2022-12-13T05:48:51;23.27;;;10.65;;
25319;SDS011;13256;49.012;8.610;2022-12-13T05:51:19;25.55;;;11.45;;
25319;SDS011;13256;49.012;8.610;2022-12-13T05:53:55;32.17;;;11.93;;
25319;SDS011;13256;49.012;8.610;2022-12-13T05:56:29;21.42;;;9.40;;
25319;SDS011;13256;49.012;8.610;2022-12-13T05:59:01;26.65;;;11.18;;
25319;SDS011;13256;49.012;8.610;2022-12-13T06:01:28;20.58;;;10.55;;
25319;SDS011;13256;49.012;8.610;2022-12-13T06:04:01;23.50;;;10.15;;
25319;SDS011;13256;49.012;8.610;2022-12-13T06:06:30;28.73;;;12.80;;
25319;SDS011;13256;49.012;8.610;2022-12-13T06:09:01;26.92;;;11.73;;
25319;SDS011;13256;49.012;8.610;2022-12-13T06:11:51;29.63;;;12.70;;
25319;SDS011;13256;49.012;8.610;2022-12-13T06:26:36;31.52;;;13.57;;
25319;SDS011;13256;49.012;8.610;2022-12-13T06:29:04;36.97;;;13.48;;
25319;SDS011;13256;49.012;8.610;2022-12-13T06:31:33;34.33;;;14.70;;
25319;SDS011;13256;49.012;8.610;2022-12-13T06:34:02;35.53;;;14.02;;
25319;SDS011;13256;49.012;8.610;2022-12-13T06:36:42;34.92;;;14.25;;
25319;SDS011;13256;49.012;8.610;2022-12-13T06:42:06;33.25;;;13.50;;
25319;SDS011;13256;49.012;8.610;2022-12-13T06:44:50;30.60;;;12.63;;
25319;SDS011;13256;49.012;8.610;2022-12-13T06:47:22;33.45;;;13.30;;
25319;SDS011;13256;49.012;8.610;2022-12-13T06:50:16;30.23;;;12.80;;
25319;SDS011;13256;49.012;8.610;2022-12-13T06:52:45;39.30;;;14.65;;
25319;SDS011;13256;49.012;8.610;2022-12-13T06:55:17;38.67;;;13.98;;
25319;SDS011;13256;49.012;8.610;2022-12-13T06:57:51;30.80;;;12.95;;
25319;SDS011;13256;49.012;8.610;2022-12-13T07:00:18;37.05;;;13.55;;
25319;SDS011;13256;49.012;8.610;2022-12-13T07:02:53;28.00;;;12.85;;
25319;SDS011;13256;49.012;8.610;2022-12-13T07:05:29;33.63;;;12.77;;
25319;SDS011;13256;49.012;8.610;2022-12-13T07:10:52;31.33;;;13.32;;
25319;SDS011;13256;49.012;8.610;2022-12-13T07:13:46;30.73;;;13.25;;
25319;SDS011;13256;49.012;8.610;2022-12-13T07:16:18;25.30;;;10.98;;
25319;SDS011;13256;49.012;8.610;2022-12-13T07:21:46;36.42;;;14.23;;
25319;SDS011;13256;49.012;8.610;2022-12-13T07:24:15;32.45;;;14.50;;
25319;SDS011;13256;49.012;8.610;2022-12-13T07:26:46;38.03;;;14.95;;
25319;SDS011;13256;49.012;8.610;2022-12-13T07:38:06;26.65;;;10.88;;
25319;SDS011;13256;49.012;8.610;2022-12-13T07:40:54;35.72;;;16.38;;
25319;SDS011;13256;49.012;8.610;2022-12-13T07:43:38;27.35;;;11.98;;
25319;SDS011;13256;49.012;8.610;2022-12-13T07:46:05;24.90;;;10.45;;
25319;SDS011;13256;49.012;8.610;2022-12-13T07:48:39;25.33;;;11.30;;
25319;SDS011;13256;49.012;8.610;2022-12-13T07:51:07;26.45;;;10.55;;
25319;SDS011;13256;49.012;8.610;2022-12-13T07:53:42;23.95;;;10.43;;
25319;SDS011;13256;49.012;8.610;2022-12-13T07:56:09;30.63;;;11.75;;
25319;SDS011;13256;49.012;8.610;2022-12-13T07:58:41;25.50;;;10.93;;
25319;SDS011;13256;49.012;8.610;2022-12-13T08:01:09;26.83;;;11.27;;
25319;SDS011;13256;49.012;8.610;2022-12-13T08:03:37;25.98;;;10.77;;
25319;SDS011;13256;49.012;8.610;2022-12-13T08:06:07;32.78;;;11.05;;
25319;SDS011;13256;49.012;8.610;2022-12-13T08:44:50;22.60;;;10.25;;
25319;SDS011;13256;49.012;8.610;2022-12-13T08:47:22;21.15;;;9.98;;
25319;SDS011;13256;49.012;8.610;2022-12-13T08:52:56;28.75;;;11.10;;
25319;SDS011;13256;49.012;8.610;2022-12-13T08:55:25;28.02;;;11.70;;
25319;SDS011;13256;49.012;8.610;2022-12-13T08:58:02;25.02;;;10.98;;
25319;SDS011;13256;49.012;8.610;2022-12-13T09:00:42;22.38;;;10.77;;
25319;SDS011;13256;49.012;8.610;2022-12-13T09:03:16;28.55;;;12.00;;
25319;SDS011;13256;49.012;8.610;2022-12-13T09:05:45;26.50;;;11.88;;
25319;SDS011;13256;49.012;8.610;2022-12-13T09:08:17;27.90;;;11.95;;
25319;SDS011;13256;49.012;8.610;2022-12-13T09:10:58;23.20;;;11.27;;
25319;SDS011;13256;49.012;8.610;2022-12-13T09:13:29;31.17;;;14.27;;
25319;SDS011;13256;49.012;8.610;2022-12-13T09:16:11;33.38;;;12.10;;
25319;SDS011;13256;49.012;8.610;2022-12-13T09:18:53;31.00;;;12.68;;
25319;SDS011;13256;49.012;8.610;2022-12-13T09:21:26;28.55;;;13.15;;
25319;SDS011;13256;49.012;8.610;2022-12-13T09:23:59;40.05;;;17.33;;
25319;SDS011;13256;49.012;8.610;2022-12-13T09:26:29;35.47;;;16.17;;
25319;SDS011;13256;49.012;8.610;2022-12-13T09:29:14;27.73;;;11.77;;
25319;SDS011;13256;49.012;8.610;2022-12-13T09:31:44;35.85;;;15.13;;
25319;SDS011;13256;49.012;8.610;2022-12-13T09:35:00;25.85;;;12.95;;
25319;SDS011;13256;49.012;8.610;2022-12-13T09:37:28;29.88;;;13.43;;
25319;SDS011;13256;49.012;8.610;2022-12-13T09:40:02;23.45;;;12.85;;
25319;SDS011;13256;49.012;8.610;2022-12-13T09:42:53;25.67;;;11.65;;
25319;SDS011;13256;49.012;8.610;2022-12-13T09:49:21;22.98;;;10.07;;
25319;SDS011;13256;49.012;8.610;2022-12-13T09:52:03;32.50;;;13.52;;
25319;SDS011;13256;49.012;8.610;2022-12-13T09:54:38;29.35;;;12.63;;
25319;SDS011;13256;49.012;8.610;2022-12-13T10:00:23;33.47;;;13.55;;
25319;SDS011;13256;49.012;8.610;2022-12-13T10:02:56;28.55;;;12.52;;
25319;SDS011;13256;49.012;8.610;2022-12-13T10:05:27;30.38;;;11.25;;
25319;SDS011;13256;49.012;8.610;2022-12-13T10:08:10;29.95;;;12.40;;
25319;SDS011;13256;49.012;8.610;2022-12-13T10:10:55;29.58;;;11.75;;
25319;SDS011;13256;49.012;8.610;2022-12-13T10:19:34;22.27;;;11.27;;
25319;SDS011;13256;49.012;8.610;2022-12-13T10:22:06;27.63;;;12.23;;
25319;SDS011;13256;49.012;8.610;2022-12-13T10:24:54;35.63;;;11.95;;
25319;SDS011;13256;49.012;8.610;2022-12-13T10:27:35;27.30;;;10.98;;
25319;SDS011;13256;49.012;8.610;2022-12-13T10:35:27;21.45;;;9.13;;
25319;SDS011;13256;49.012;8.610;2022-12-13T10:38:19;21.02;;;9.48;;
25319;SDS011;13256;49.012;8.610;2022-12-13T10:41:00;19.02;;;8.60;;
25319;SDS011;13256;49.012;8.610;2022-12-13T10:43:27;21.75;;;9.82;;
25319;SDS011;13256;49.012;8.610;2022-12-13T10:45:59;17.58;;;8.48;;
25319;SDS011;13256;49.012;8.610;2022-12-13T10:48:40;19.65;;;9.20;;
25319;SDS011;13256;49.012;8.610;2022-12-13T10:51:17;18.48;;;9.43;;
25319;SDS011;13256;49.012;8.610;2022-12-13T10:53:54;21.70;;;9.75;;
25319;SDS011;13256;49.012;8.610;2022-12-13T10:56:46;25.52;;;10.75;;
25319;SDS011;13256;49.012;8.610;2022-12-13T11:01:45;14.25;;;7.43;;
25319;SDS011;13256;49.012;8.610;2022-12-13T11:04:26;24.35;;;8.73;;
25319;SDS011;13256;49.012;8.610;2022-12-13T11:06:58;16.58;;;7.93;;
25319;SDS011;13256;49.012;8.610;2022-12-13T11:09:33;18.55;;;7.93;;
25319;SDS011;13256;49.012;8.610;2022-12-13T11:12:14;21.60;;;8.75;;
25319;SDS011;13256;49.012;8.610;2022-12-13T11:14:49;22.08;;;7.78;;
25319;SDS011;13256;49.012;8.610;2022-12-13T11:17:32;16.58;;;8.02;;
25319;SDS011;13256;49.012;8.610;2022-12-13T11:20:05;19.75;;;8.63;;
25319;SDS011;13256;49.012;8.610;2022-12-13T11:22:43;28.05;;;8.60;;
25319;SDS011;13256;49.012;8.610;2022-12-13T11:25:22;17.42;;;8.05;;
25319;SDS011;13256;49.012;8.610;2022-12-13T11:30:34;20.05;;;8.77;;
25319;SDS011;13256;49.012;8.610;2022-12-13T11:36:25;22.75;;;8.70;;
25319;SDS011;13256;49.012;8.610;2022-12-13T11:39:02;21.95;;;9.48;;
25319;SDS011;13256;49.012;8.610;2022-12-13T11:41:59;23.35;;;9.82;;
25319;SDS011;13256;49.012;8.610;2022-12-13T11:44:39;19.08;;;7.25;;
25319;SDS011;13256;49.012;8.610;2022-12-13T11:47:18;16.35;;;7.25;;
25319;SDS011;13256;49.012;8.610;2022-12-13T11:49:49;16.30;;;7.38;;
25319;SDS011;13256;49.012;8.610;2022-12-13T11:57:44;12.50;;;6.70;;
25319;SDS011;13256;49.012;8.610;2022-12-13T12:03:19;17.58;;;7.45;;
25319;SDS011;13256;49.012;8.610;2022-12-13T12:05:56;20.60;;;7.45;;
25319;SDS011;13256;49.012;8.610;2022-12-13T12:11:19;16.67;;;7.50;;
25319;SDS011;13256;49.012;8.610;2022-12-13T12:13:54;17.00;;;7.85;;
25319;SDS011;13256;49.012;8.610;2022-12-13T12:16:49;22.63;;;8.70;;
25319;SDS011;13256;49.012;8.610;2022-12-13T12:19:22;24.48;;;8.95;;
25319;SDS011;13256;49.012;8.610;2022-12-13T12:27:36;16.83;;;7.10;;
25319;SDS011;13256;49.012;8.610;2022-12-13T12:30:20;16.88;;;7.22;;
25319;SDS011;13256;49.012;8.610;2022-12-13T12:35:46;17.60;;;6.75;;
25319;SDS011;13256;49.012;8.610;2022-12-13T12:41:43;17.00;;;7.18;;
25319;SDS011;13256;49.012;8.610;2022-12-13T13:03:50;102.43;;;29.30;;
25319;SDS011;13256;49.012;8.610;2022-12-13T13:06:39;104.65;;;28.73;;
25319;SDS011;13256;49.012;8.610;2022-12-13T13:09:11;35.47;;;12.73;;
25319;SDS011;13256;49.012;8.610;2022-12-13T13:11:50;34.33;;;12.50;;
25319;SDS011;13256;49.012;8.610;2022-12-13T13:16:59;20.55;;;7.93;;
25319;SDS011;13256;49.012;8.610;2022-12-13T13:19:52;25.05;;;10.02;;
25319;SDS011;13256;49.012;8.610;2022-12-13T13:22:42;17.20;;;6.85;;
25319;SDS011;13256;49.012;8.610;2022-12-13T13:28:16;13.45;;;7.22;;
25319;SDS011;13256;49.012;8.610;2022-12-13T13:33:41;14.30;;;6.43;;
25319;SDS011;13256;49.012;8.610;2022-12-13T13:38:59;21.92;;;6.78;;
25319;SDS011;13256;49.012;8.610;2022-12-13T13:44:31;23.38;;;8.85;;
25319;SDS011;13256;49.012;8.610;2022-12-13T13:47:16;20.60;;;;;
25319;SDS011;13256;49.012;8.610;2022-12-13T13:56:16;30.45;;;9.48;;
25319;SDS011;13256;49.012;8.610;2022-12-13T14:00:59;19.73;;;9.68;;
25319;SDS011;13256;49.012;8.610;2022-12-13T14:30:20;29.00;;;10.68;;
25319;SDS011;13256;49.012;8.610;2022-12-13T14:32:55;25.77;;;10.77;;
25319;SDS011;13256;49.012;8.610;2022-12-13T14:35:27;19.98;;;9.77;;
25319;SDS011;13256;49.012;8.610;2022-12-13T14:38:00;27.23;;;9.73;;
25319;SDS011;13256;49.012;8.610;2022-12-13T14:40:35;24.17;;;10.10;;
25319;SDS011;13256;49.012;8.610;2022-12-13T14:43:19;19.77;;;9.25;;
25319;SDS011;13256;49.012;8.610;2022-12-13T14:45:57;17.35;;;8.68;;
25319;SDS011;13256;49.012;8.610;2022-12-13T14:48:33;25.50;;;9.82;;
25319;SDS011;13256;49.012;8.610;2022-12-13T14:51:33;24.85;;;9.85;;
25319;SDS011;13256;49.012;8.610;2022-12-13T14:54:03;18.73;;;8.65;;
25319;SDS011;13256;49.012;8.610;2022-12-13T14:56:32;23.30;;;9.63;;
25319;SDS011;13256;49.012;8.610;2022-12-13T14:59:00;23.77;;;11.27;;
25319;SDS011;13256;49.012;8.610;2022-12-13T15:01:35;27.48;;;9.75;;
25319;SDS011;13256;49.012;8.610;2022-12-13T15:04:26;19.13;;;9.45;;
25319;SDS011;13256;49.012;8.610;2022-12-13T15:09:48;22.40;;;9.55;;
25319;SDS011;13256;49.012;8.610;2022-12-13T15:12:20;24.92;;;10.43;;
25319;SDS011;13256;49.012;8.610;2022-12-13T15:14:54;29.38;;;10.60;;
25319;SDS011;13256;49.012;8.610;2022-12-13T15:20:26;19.30;;;9.70;;
25319;SDS011;13256;49.012;8.610;2022-12-13T15:23:13;23.85;;;9.40;;
25319;SDS011;13256;49.012;8.610;2022-12-13T15:26:13;21.80;;;9.40;;
25319;SDS011;13256;49.012;8.610;2022-12-13T15:28:56;26.15;;;9.73;;
25319;SDS011;13256;49.012;8.610;2022-12-13T15:31:25;19.85;;;9.07;;
25319;SDS011;13256;49.012;8.610;2022-12-13T15:33:52;23.65;;;9.55;;
25319;SDS011;13256;49.012;8.610;2022-12-13T15:36:29;21.05;;;9.48;;
25319;SDS011;13256;49.012;8.610;2022-12-13T15:41:27;25.42;;;9.45;;
25319;SDS011;13256;49.012;8.610;2022-12-13T15:44:00;19.73;;;9.68;;
25319;SDS011;13256;49.012;8.610;2022-12-13T15:46:31;22.20;;;9.52;;
25319;SDS011;13256;49.012;8.610;2022-12-13T15:49:05;21.95;;;9.15;;
25319;SDS011;13256;49.012;8.610;2022-12-13T15:51:54;25.23;;;9.50;;
25319;SDS011;13256;49.012;8.610;2022-12-13T15:54:34;25.38;;;10.15;;
25319;SDS011;13256;49.012;8.610;2022-12-13T15:59:40;20.10;;;9.43;;
25319;SDS011;13256;49.012;8.610;2022-12-13T16:02:12;21.02;;;9.05;;
25319;SDS011;13256;49.012;8.610;2022-12-13T16:04:51;20.67;;;10.02;;
25319;SDS011;13256;49.012;8.610;2022-12-13T16:07:21;25.77;;;11.05;;
25319;SDS011;13256;49.012;8.610;2022-12-13T16:09:53;24.55;;;10.98;;
25319;SDS011;13256;49.012;8.610;2022-12-13T16:12:23;22.88;;;9.60;;
25319;SDS011;13256;49.012;8.610;2022-12-13T16:18:06;21.17;;;8.75;;
25319;SDS011;13256;49.012;8.610;2022-12-13T16:20:41;21.80;;;10.25;;
25319;SDS011;13256;49.012;8.610;2022-12-13T16:23:09;19.25;;;9.00;;
25319;SDS011;13256;49.012;8.610;2022-12-13T16:25:35;25.90;;;9.73;;
25319;SDS011;13256;49.012;8.610;2022-12-13T16:28:02;18.88;;;9.38;;
25319;SDS011;13256;49.012;8.610;2022-12-13T16:33:22;18.52;;;8.40;;
25319;SDS011;13256;49.012;8.610;2022-12-13T16:35:54;22.63;;;8.85;;
25319;SDS011;13256;49.012;8.610;2022-12-13T16:38:22;18.88;;;8.68;;
25319;SDS011;13256;49.012;8.610;2022-12-13T16:40:55;18.00;;;8.13;;
25319;SDS011;13256;49.012;8.610;2022-12-13T16:43:25;20.80;;;9.25;;
25319;SDS011;13256;49.012;8.610;2022-12-13T16:46:07;15.40;;;7.65;;
25319;SDS011;13256;49.012;8.610;2022-12-13T16:49:04;19.13;;;8.60;;
25319;SDS011;13256;49.012;8.610;2022-12-13T16:51:47;24.65;;;10.50;;
25319;SDS011;13256;49.012;8.610;2022-12-13T16:54:17;21.92;;;8.93;;
25319;SDS011;13256;49.012;8.610;2022-12-13T16:56:48;23.35;;;9.68;;
25319;SDS011;13256;49.012;8.610;2022-12-13T17:09:24;24.40;;;8.30;;
25319;SDS011;13256;49.012;8.610;2022-12-13T17:11:52;22.73;;;8.73;;
25319;SDS011;13256;49.012;8.610;2022-12-13T17:14:24;21.65;;;8.65;;
25319;SDS011;13256;49.012;8.610;2022-12-13T17:16:54;20.58;;;8.48;;
25319;SDS011;13256;49.012;8.610;2022-12-13T17:19:30;22.50;;;9.25;;
25319;SDS011;13256;49.012;8.610;2022-12-13T17:21:57;25.10;;;8.68;;
25319;SDS011;13256;49.012;8.610;2022-12-13T17:24:24;21.35;;;8.95;;
25319;SDS011;13256;49.012;8.610;2022-12-13T17:26:52;17.23;;;8.18;;
25319;SDS011;13256;49.012;8.610;2022-12-13T17:29:22;25.52;;;10.00;;
25319;SDS011;13256;49.012;8.610;2022-12-13T17:31:49;18.60;;;8.73;;
25319;SDS011;13256;49.012;8.610;2022-12-13T17:37:10;17.10;;;7.97;;
25319;SDS011;13256;49.012;8.610;2022-12-13T17:39:37;21.02;;;8.55;;
25319;SDS011;13256;49.012;8.610;2022-12-13T17:42:08;20.67;;;9.18;;
25319;SDS011;13256;49.012;8.610;2022-12-13T17:44:35;20.20;;;8.70;;
25319;SDS011;13256;49.012;8.610;2022-12-13T17:47:02;20.50;;;8.77;;
25319;SDS011;13256;49.012;8.610;2022-12-13T17:49:35;18.00;;;8.63;;
25319;SDS011;13256;49.012;8.610;2022-12-13T17:52:02;25.80;;;9.45;;
25319;SDS011;13256;49.012;8.610;2022-12-13T17:54:29;23.65;;;10.40;;
25319;SDS011;13256;49.012;8.610;2022-12-13T17:56:58;19.23;;;8.73;;
25319;SDS011;13256;49.012;8.610;2022-12-13T17:59:26;20.42;;;9.45;;
25319;SDS011;13256;49.012;8.610;2022-12-13T18:01:53;19.75;;;9.32;;
25319;SDS011;13256;49.012;8.610;2022-12-13T18:04:24;18.77;;;8.48;;
25319;SDS011;13256;49.012;8.610;2022-12-13T18:06:54;16.20;;;7.85;;
25319;SDS011;13256;49.012;8.610;2022-12-13T18:09:25;21.25;;;9.50;;
25319;SDS011;13256;49.012;8.610;2022-12-13T18:11:52;19.75;;;8.02;;
25319;SDS011;13256;49.012;8.610;2022-12-13T18:14:21;17.58;;;8.80;;
25319;SDS011;13256;49.012;8.610;2022-12-13T18:16:54;19.42;;;8.23;;
25319;SDS011;13256;49.012;8.610;2022-12-13T18:19:24;20.35;;;8.88;;
25319;SDS011;13256;49.012;8.610;2022-12-13T18:21:57;16.25;;;7.60;;
25319;SDS011;13256;49.012;8.610;2022-12-13T18:24:41;19.25;;;8.80;;
25319;SDS011;13256;49.012;8.610;2022-12-13T18:27:08;17.05;;;7.68;;
25319;SDS011;13256;49.012;8.610;2022-12-13T18:29:35;17.75;;;9.15;;
25319;SDS011;13256;49.012;8.610;2022-12-13T18:32:22;20.52;;;8.52;;
25319;SDS011;13256;49.012;8.610;2022-12-13T18:34:49;21.08;;;7.90;;
25319;SDS011;13256;49.012;8.610;2022-12-13T18:37:20;21.05;;;7.15;;
25319;SDS011;13256;49.012;8.610;2022-12-13T18:39:54;18.77;;;8.50;;
25319;SDS011;13256;49.012;8.610;2022-12-13T18:42:22;21.73;;;8.50;;
25319;SDS011;13256;49.012;8.610;2022-12-13T18:44:49;14.70;;;7.72;;
25319;SDS011;13256;49.012;8.610;2022-12-13T18:47:20;14.82;;;7.53;;
25319;SDS011;13256;49.012;8.610;2022-12-13T18:49:50;13.52;;;6.95;;
25319;SDS011;13256;49.012;8.610;2022-12-13T18:52:21;12.70;;;7.00;;
25319;SDS011;13256;49.012;8.610;2022-12-13T18:54:56;16.02;;;7.28;;
25319;SDS011;13256;49.012;8.610;2022-12-13T18:57:25;13.00;;;6.90;;
25319;SDS011;13256;49.012;8.610;2022-12-13T18:59:52;17.83;;;7.50;;
25319;SDS011;13256;49.012;8.610;2022-12-13T19:02:21;22.52;;;8.48;;
25319;SDS011;13256;49.012;8.610;2022-12-13T19:04:47;16.42;;;6.78;;
25319;SDS011;13256;49.012;8.610;2022-12-13T19:07:22;13.63;;;6.30;;
25319;SDS011;13256;49.012;8.610;2022-12-13T19:09:49;17.50;;;6.90;;
25319;SDS011;13256;49.012;8.610;2022-12-13T19:12:23;15.82;;;7.13;;
25319;SDS011;13256;49.012;8.610;2022-12-13T19:14:51;14.02;;;6.25;;
25319;SDS011;13256;49.012;8.610;2022-12-13T19:17:20;15.57;;;6.72;;
25319;SDS011;13256;49.012;8.610;2022-12-13T19:19:51;15.75;;;7.22;;
25319;SDS011;13256;49.012;8.610;2022-12-13T19:22:18;14.57;;;7.25;;
25319;SDS011;13256;49.012;8.610;2022-12-13T19:24:48;14.55;;;6.55;;